sensor_id;sensor_type;location;lat;lon;timestamp;P1;durP1;ratioP1;P2;durP2;ratioP2
5555;SDS011;2801;50.972;7.856;2022-12-07T00:01:33;28.67;;;11.13;;
5555;SDS011;2801;50.972;7.856;2022-12-07T00:04:07;30.00;;;11.60;;
5555;SDS011;2801;50.972;7.856;2022-12-07T00:06:44;30.70;;;12.60;;
5555;SDS011;2801;50.972;7.856;2022-12-07T00:09:16;36.17;;;11.97;;
5555;SDS011;2801;50.972;7.856;2022-12-07T00:11:44;29.07;;;11.63;;
5555;SDS011;2801;50.972;7.856;2022-12-07T00:14:15;30.27;;;10.90;;
5555;SDS011;2801;50.972;7.856;2022-12-07T00:16:43;30.47;;;11.27;;
5555;SDS011;2801;50.972;7.856;2022-12-07T00:19:11;30.57;;;11.27;;
5555;SDS011;2801;50.972;7.856;2022-12-07T00:21:40;27.40;;;11.20;;
5555;SDS011;2801;50.972;7.856;2022-12-07T00:24:07;31.33;;;12.17;;
5555;SDS011;2801;50.972;7.856;2022-12-07T00:26:37;32.53;;;13.03;;
5555;SDS011;2801;50.972;7.856;2022-12-07T00:29:16;33.37;;;11.90;;
5555;SDS011;2801;50.972;7.856;2022-12-07T00:31:47;32.53;;;11.67;;
5555;SDS011;2801;50.972;7.856;2022-12-07T00:34:16;34.30;;;12.23;;
5555;SDS011;2801;50.972;7.856;2022-12-07T00:36:45;37.80;;;13.10;;
5555;SDS011;2801;50.972;7.856;2022-12-07T00:39:13;38.43;;;12.97;;
5555;SDS011;2801;50.972;7.856;2022-12-07T00:41:40;38.93;;;12.43;;
5555;SDS011;2801;50.972;7.856;2022-12-07T00:44:07;34.10;;;11.90;;
5555;SDS011;2801;50.972;7.856;2022-12-07T00:46:34;30.57;;;12.30;;
5555;SDS011;2801;50.972;7.856;2022-12-07T00:49:00;30.10;;;10.27;;
5555;SDS011;2801;50.972;7.856;2022-12-07T00:51:27;28.60;;;11.20;;
5555;SDS011;2801;50.972;7.856;2022-12-07T00:53:54;26.57;;;11.60;;
5555;SDS011;2801;50.972;7.856;2022-12-07T00:56:22;27.83;;;9.43;;
5555;SDS011;2801;50.972;7.856;2022-12-07T00:58:54;24.23;;;10.03;;
5555;SDS011;2801;50.972;7.856;2022-12-07T01:01:28;24.03;;;9.63;;
5555;SDS011;2801;50.972;7.856;2022-12-07T01:03:58;25.40;;;10.33;;
5555;SDS011;2801;50.972;7.856;2022-12-07T01:06:27;30.17;;;10.83;;
5555;SDS011;2801;50.972;7.856;2022-12-07T01:08:55;30.40;;;11.23;;
5555;SDS011;2801;50.972;7.856;2022-12-07T01:11:23;38.03;;;12.80;;
5555;SDS011;2801;50.972;7.856;2022-12-07T01:13:53;31.77;;;12.33;;
5555;SDS011;2801;50.972;7.856;2022-12-07T01:16:23;37.77;;;13.07;;
5555;SDS011;2801;50.972;7.856;2022-12-07T01:18:53;38.83;;;13.30;;
5555;SDS011;2801;50.972;7.856;2022-12-07T01:21:26;45.17;;;13.90;;
5555;SDS011;2801;50.972;7.856;2022-12-07T01:23:56;49.70;;;14.57;;
5555;SDS011;2801;50.972;7.856;2022-12-07T01:26:24;52.57;;;15.23;;
5555;SDS011;2801;50.972;7.856;2022-12-07T01:28:52;60.30;;;15.43;;
5555;SDS011;2801;50.972;7.856;2022-12-07T01:31:22;69.23;;;16.03;;
5555;SDS011;2801;50.972;7.856;2022-12-07T01:33:52;80.10;;;15.07;;
5555;SDS011;2801;50.972;7.856;2022-12-07T01:36:26;63.90;;;14.77;;
5555;SDS011;2801;50.972;7.856;2022-12-07T01:38:57;73.30;;;15.17;;
5555;SDS011;2801;50.972;7.856;2022-12-07T01:41:31;80.30;;;15.77;;
5555;SDS011;2801;50.972;7.856;2022-12-07T01:44:19;65.87;;;15.27;;
5555;SDS011;2801;50.972;7.856;2022-12-07T01:46:57;78.87;;;16.17;;
5555;SDS011;2801;50.972;7.856;2022-12-07T01:49:35;60.93;;;15.33;;
5555;SDS011;2801;50.972;7.856;2022-12-07T01:54:59;79.93;;;16.60;;
5555;SDS011;2801;50.972;7.856;2022-12-07T01:57:32;69.20;;;15.20;;
5555;SDS011;2801;50.972;7.856;2022-12-07T02:00:07;53.63;;;14.37;;
5555;SDS011;2801;50.972;7.856;2022-12-07T02:02:37;49.67;;;14.83;;
5555;SDS011;2801;50.972;7.856;2022-12-07T02:05:11;55.27;;;15.13;;
5555;SDS011;2801;50.972;7.856;2022-12-07T02:07:40;36.27;;;13.03;;
5555;SDS011;2801;50.972;7.856;2022-12-07T02:10:27;45.87;;;14.13;;
5555;SDS011;2801;50.972;7.856;2022-12-07T02:13:07;40.90;;;13.50;;
5555;SDS011;2801;50.972;7.856;2022-12-07T02:30:31;35.30;;;10.50;;
5555;SDS011;2801;50.972;7.856;2022-12-07T02:35:46;27.20;;;10.30;;
5555;SDS011;2801;50.972;7.856;2022-12-07T02:38:39;26.40;;;10.10;;
5555;SDS011;2801;50.972;7.856;2022-12-07T02:41:18;32.47;;;11.57;;
5555;SDS011;2801;50.972;7.856;2022-12-07T02:43:55;30.90;;;11.77;;
5555;SDS011;2801;50.972;7.856;2022-12-07T02:46:32;34.70;;;11.57;;
5555;SDS011;2801;50.972;7.856;2022-12-07T02:49:07;36.60;;;12.57;;
5555;SDS011;2801;50.972;7.856;2022-12-07T02:51:38;37.57;;;13.30;;
5555;SDS011;2801;50.972;7.856;2022-12-07T02:54:12;40.33;;;13.97;;
5555;SDS011;2801;50.972;7.856;2022-12-07T03:18:42;37.67;;;13.20;;
5555;SDS011;2801;50.972;7.856;2022-12-07T03:21:23;37.10;;;12.40;;
5555;SDS011;2801;50.972;7.856;2022-12-07T03:23:59;42.43;;;13.27;;
5555;SDS011;2801;50.972;7.856;2022-12-07T03:26:36;40.13;;;13.93;;
5555;SDS011;2801;50.972;7.856;2022-12-07T03:29:13;39.47;;;13.73;;
5555;SDS011;2801;50.972;7.856;2022-12-07T03:32:00;39.90;;;12.73;;
5555;SDS011;2801;50.972;7.856;2022-12-07T03:34:36;40.77;;;13.67;;
5555;SDS011;2801;50.972;7.856;2022-12-07T03:40:50;38.17;;;13.37;;
5555;SDS011;2801;50.972;7.856;2022-12-07T03:43:32;40.97;;;12.93;;
5555;SDS011;2801;50.972;7.856;2022-12-07T03:46:06;33.97;;;13.03;;
5555;SDS011;2801;50.972;7.856;2022-12-07T03:51:40;52.20;;;15.63;;
5555;SDS011;2801;50.972;7.856;2022-12-07T03:54:44;39.13;;;13.77;;
5555;SDS011;2801;50.972;7.856;2022-12-07T03:57:22;46.47;;;14.23;;
5555;SDS011;2801;50.972;7.856;2022-12-07T03:59:51;43.80;;;14.83;;
5555;SDS011;2801;50.972;7.856;2022-12-07T04:02:22;46.33;;;13.93;;
5555;SDS011;2801;50.972;7.856;2022-12-07T04:04:53;44.83;;;14.20;;
5555;SDS011;2801;50.972;7.856;2022-12-07T04:07:21;50.73;;;15.30;;
5555;SDS011;2801;50.972;7.856;2022-12-07T04:09:48;40.83;;;13.90;;
5555;SDS011;2801;50.972;7.856;2022-12-07T04:12:15;42.37;;;13.90;;
5555;SDS011;2801;50.972;7.856;2022-12-07T04:14:42;38.70;;;13.43;;
5555;SDS011;2801;50.972;7.856;2022-12-07T04:17:09;43.47;;;13.30;;
5555;SDS011;2801;50.972;7.856;2022-12-07T04:19:35;36.53;;;12.60;;
5555;SDS011;2801;50.972;7.856;2022-12-07T04:22:05;45.57;;;13.90;;
5555;SDS011;2801;50.972;7.856;2022-12-07T04:24:34;38.53;;;13.90;;
5555;SDS011;2801;50.972;7.856;2022-12-07T04:27:01;49.53;;;14.30;;
5555;SDS011;2801;50.972;7.856;2022-12-07T04:29:28;40.53;;;13.03;;
5555;SDS011;2801;50.972;7.856;2022-12-07T04:31:55;50.57;;;14.23;;
5555;SDS011;2801;50.972;7.856;2022-12-07T04:34:22;40.50;;;13.33;;
5555;SDS011;2801;50.972;7.856;2022-12-07T04:36:49;42.00;;;13.67;;
5555;SDS011;2801;50.972;7.856;2022-12-07T04:39:20;38.03;;;13.47;;
5555;SDS011;2801;50.972;7.856;2022-12-07T04:41:53;37.13;;;13.17;;
5555;SDS011;2801;50.972;7.856;2022-12-07T04:44:22;39.40;;;12.50;;
5555;SDS011;2801;50.972;7.856;2022-12-07T04:46:51;45.93;;;14.43;;
5555;SDS011;2801;50.972;7.856;2022-12-07T04:49:19;31.07;;;11.57;;
5555;SDS011;2801;50.972;7.856;2022-12-07T04:51:47;23.87;;;7.67;;
5555;SDS011;2801;50.972;7.856;2022-12-07T04:54:14;18.53;;;6.93;;
5555;SDS011;2801;50.972;7.856;2022-12-07T04:56:42;17.33;;;7.20;;
5555;SDS011;2801;50.972;7.856;2022-12-07T04:59:12;16.17;;;6.70;;
5555;SDS011;2801;50.972;7.856;2022-12-07T05:01:41;21.00;;;7.13;;
5555;SDS011;2801;50.972;7.856;2022-12-07T05:04:09;22.30;;;7.03;;
5555;SDS011;2801;50.972;7.856;2022-12-07T05:06:36;17.27;;;7.03;;
5555;SDS011;2801;50.972;7.856;2022-12-07T05:09:03;19.10;;;7.07;;
5555;SDS011;2801;50.972;7.856;2022-12-07T05:11:30;19.67;;;7.83;;
5555;SDS011;2801;50.972;7.856;2022-12-07T05:14:11;20.00;;;7.40;;
5555;SDS011;2801;50.972;7.856;2022-12-07T05:16:40;24.10;;;8.47;;
5555;SDS011;2801;50.972;7.856;2022-12-07T05:19:09;23.30;;;8.07;;
5555;SDS011;2801;50.972;7.856;2022-12-07T05:21:37;24.90;;;7.93;;
5555;SDS011;2801;50.972;7.856;2022-12-07T05:24:05;26.10;;;8.80;;
5555;SDS011;2801;50.972;7.856;2022-12-07T05:26:33;28.83;;;9.57;;
5555;SDS011;2801;50.972;7.856;2022-12-07T05:29:00;31.10;;;9.80;;
5555;SDS011;2801;50.972;7.856;2022-12-07T05:31:27;23.70;;;8.83;;
5555;SDS011;2801;50.972;7.856;2022-12-07T05:33:54;28.57;;;9.73;;
5555;SDS011;2801;50.972;7.856;2022-12-07T05:36:22;29.53;;;10.87;;
5555;SDS011;2801;50.972;7.856;2022-12-07T05:38:49;28.33;;;10.13;;
5555;SDS011;2801;50.972;7.856;2022-12-07T05:41:16;33.33;;;10.30;;
5555;SDS011;2801;50.972;7.856;2022-12-07T05:44:04;27.00;;;10.23;;
5555;SDS011;2801;50.972;7.856;2022-12-07T05:46:32;25.80;;;10.03;;
5555;SDS011;2801;50.972;7.856;2022-12-07T05:48:59;34.30;;;10.97;;
5555;SDS011;2801;50.972;7.856;2022-12-07T05:51:27;37.47;;;12.07;;
5555;SDS011;2801;50.972;7.856;2022-12-07T05:53:54;34.80;;;12.07;;
5555;SDS011;2801;50.972;7.856;2022-12-07T05:56:21;37.37;;;11.63;;
5555;SDS011;2801;50.972;7.856;2022-12-07T05:58:48;34.43;;;11.97;;
5555;SDS011;2801;50.972;7.856;2022-12-07T06:01:34;43.30;;;12.70;;
5555;SDS011;2801;50.972;7.856;2022-12-07T06:04:00;42.27;;;13.70;;
5555;SDS011;2801;50.972;7.856;2022-12-07T06:06:27;39.53;;;12.50;;
5555;SDS011;2801;50.972;7.856;2022-12-07T06:08:54;31.80;;;10.90;;
5555;SDS011;2801;50.972;7.856;2022-12-07T06:11:21;36.93;;;12.20;;
5555;SDS011;2801;50.972;7.856;2022-12-07T06:14:06;26.67;;;11.00;;
5555;SDS011;2801;50.972;7.856;2022-12-07T06:16:37;34.20;;;11.37;;
5555;SDS011;2801;50.972;7.856;2022-12-07T06:19:04;28.00;;;10.73;;
5555;SDS011;2801;50.972;7.856;2022-12-07T06:21:31;32.03;;;10.90;;
5555;SDS011;2801;50.972;7.856;2022-12-07T06:23:58;34.43;;;10.87;;
5555;SDS011;2801;50.972;7.856;2022-12-07T06:26:25;32.43;;;10.83;;
5555;SDS011;2801;50.972;7.856;2022-12-07T06:28:52;32.37;;;11.50;;
5555;SDS011;2801;50.972;7.856;2022-12-07T06:31:19;29.90;;;12.00;;
5555;SDS011;2801;50.972;7.856;2022-12-07T06:33:46;35.87;;;12.17;;
5555;SDS011;2801;50.972;7.856;2022-12-07T06:36:13;36.37;;;12.40;;
5555;SDS011;2801;50.972;7.856;2022-12-07T06:38:39;33.37;;;11.83;;
5555;SDS011;2801;50.972;7.856;2022-12-07T06:41:06;33.07;;;12.97;;
5555;SDS011;2801;50.972;7.856;2022-12-07T06:43:33;36.33;;;12.63;;
5555;SDS011;2801;50.972;7.856;2022-12-07T06:46:00;32.93;;;12.37;;
5555;SDS011;2801;50.972;7.856;2022-12-07T06:48:27;39.57;;;12.57;;
5555;SDS011;2801;50.972;7.856;2022-12-07T06:50:54;30.83;;;11.43;;
5555;SDS011;2801;50.972;7.856;2022-12-07T06:53:21;32.73;;;11.20;;
5555;SDS011;2801;50.972;7.856;2022-12-07T06:55:48;31.23;;;11.00;;
5555;SDS011;2801;50.972;7.856;2022-12-07T06:58:15;30.43;;;10.97;;
5555;SDS011;2801;50.972;7.856;2022-12-07T07:00:43;32.00;;;10.57;;
5555;SDS011;2801;50.972;7.856;2022-12-07T07:03:11;27.70;;;10.80;;
5555;SDS011;2801;50.972;7.856;2022-12-07T07:05:37;32.67;;;12.57;;
5555;SDS011;2801;50.972;7.856;2022-12-07T07:08:04;30.83;;;11.27;;
5555;SDS011;2801;50.972;7.856;2022-12-07T07:10:48;46.73;;;22.47;;
5555;SDS011;2801;50.972;7.856;2022-12-07T07:13:15;31.60;;;11.77;;
5555;SDS011;2801;50.972;7.856;2022-12-07T07:15:42;26.47;;;9.67;;
5555;SDS011;2801;50.972;7.856;2022-12-07T07:18:10;28.67;;;11.00;;
5555;SDS011;2801;50.972;7.856;2022-12-07T07:20:37;32.63;;;10.60;;
5555;SDS011;2801;50.972;7.856;2022-12-07T07:23:05;26.53;;;10.33;;
5555;SDS011;2801;50.972;7.856;2022-12-07T07:25:33;28.00;;;11.23;;
5555;SDS011;2801;50.972;7.856;2022-12-07T07:28:00;29.50;;;11.73;;
5555;SDS011;2801;50.972;7.856;2022-12-07T07:30:28;28.83;;;11.03;;
5555;SDS011;2801;50.972;7.856;2022-12-07T07:32:58;29.63;;;11.70;;
5555;SDS011;2801;50.972;7.856;2022-12-07T07:35:30;32.93;;;12.50;;
5555;SDS011;2801;50.972;7.856;2022-12-07T07:37:59;35.93;;;11.77;;
5555;SDS011;2801;50.972;7.856;2022-12-07T07:40:26;29.97;;;11.87;;
5555;SDS011;2801;50.972;7.856;2022-12-07T07:42:57;27.30;;;11.10;;
5555;SDS011;2801;50.972;7.856;2022-12-07T07:45:25;36.70;;;13.37;;
5555;SDS011;2801;50.972;7.856;2022-12-07T07:47:53;30.20;;;11.70;;
5555;SDS011;2801;50.972;7.856;2022-12-07T07:50:20;29.83;;;11.10;;
5555;SDS011;2801;50.972;7.856;2022-12-07T07:52:48;28.97;;;11.10;;
5555;SDS011;2801;50.972;7.856;2022-12-07T07:55:15;25.97;;;10.27;;
5555;SDS011;2801;50.972;7.856;2022-12-07T07:57:42;34.10;;;11.37;;
5555;SDS011;2801;50.972;7.856;2022-12-07T08:00:15;31.50;;;12.23;;
5555;SDS011;2801;50.972;7.856;2022-12-07T08:02:43;32.73;;;11.33;;
5555;SDS011;2801;50.972;7.856;2022-12-07T08:05:11;32.60;;;11.57;;
5555;SDS011;2801;50.972;7.856;2022-12-07T08:07:39;31.27;;;10.20;;
5555;SDS011;2801;50.972;7.856;2022-12-07T08:10:07;30.53;;;10.77;;
5555;SDS011;2801;50.972;7.856;2022-12-07T08:12:39;31.27;;;10.73;;
5555;SDS011;2801;50.972;7.856;2022-12-07T08:15:27;26.80;;;10.00;;
5555;SDS011;2801;50.972;7.856;2022-12-07T08:17:57;29.57;;;11.87;;
5555;SDS011;2801;50.972;7.856;2022-12-07T08:20:24;27.20;;;10.77;;
5555;SDS011;2801;50.972;7.856;2022-12-07T08:22:51;25.17;;;11.13;;
5555;SDS011;2801;50.972;7.856;2022-12-07T08:25:18;19.23;;;8.13;;
5555;SDS011;2801;50.972;7.856;2022-12-07T08:27:45;20.13;;;9.07;;
5555;SDS011;2801;50.972;7.856;2022-12-07T08:30:12;18.43;;;7.80;;
5555;SDS011;2801;50.972;7.856;2022-12-07T08:32:39;21.17;;;8.20;;
5555;SDS011;2801;50.972;7.856;2022-12-07T08:35:07;16.57;;;7.80;;
5555;SDS011;2801;50.972;7.856;2022-12-07T08:37:34;21.77;;;8.97;;
5555;SDS011;2801;50.972;7.856;2022-12-07T08:40:02;23.47;;;8.30;;
5555;SDS011;2801;50.972;7.856;2022-12-07T08:42:30;18.70;;;7.97;;
5555;SDS011;2801;50.972;7.856;2022-12-07T08:45:05;26.10;;;9.27;;
5555;SDS011;2801;50.972;7.856;2022-12-07T08:47:38;20.87;;;8.77;;
5555;SDS011;2801;50.972;7.856;2022-12-07T08:50:12;21.27;;;9.47;;
5555;SDS011;2801;50.972;7.856;2022-12-07T08:52:40;23.30;;;9.73;;
5555;SDS011;2801;50.972;7.856;2022-12-07T08:55:09;21.57;;;9.97;;
5555;SDS011;2801;50.972;7.856;2022-12-07T08:57:37;25.90;;;10.33;;
5555;SDS011;2801;50.972;7.856;2022-12-07T09:00:05;21.57;;;9.80;;
5555;SDS011;2801;50.972;7.856;2022-12-07T09:02:33;26.50;;;10.57;;
5555;SDS011;2801;50.972;7.856;2022-12-07T09:05:01;26.40;;;10.90;;
5555;SDS011;2801;50.972;7.856;2022-12-07T09:07:29;29.40;;;10.73;;
5555;SDS011;2801;50.972;7.856;2022-12-07T09:10:00;27.30;;;10.53;;
5555;SDS011;2801;50.972;7.856;2022-12-07T09:12:27;24.60;;;11.07;;
5555;SDS011;2801;50.972;7.856;2022-12-07T09:14:54;24.80;;;11.07;;
5555;SDS011;2801;50.972;7.856;2022-12-07T09:17:22;25.57;;;10.93;;
5555;SDS011;2801;50.972;7.856;2022-12-07T09:19:49;24.50;;;10.73;;
5555;SDS011;2801;50.972;7.856;2022-12-07T09:22:15;25.47;;;10.23;;
5555;SDS011;2801;50.972;7.856;2022-12-07T09:24:42;21.73;;;8.43;;
5555;SDS011;2801;50.972;7.856;2022-12-07T09:27:11;17.03;;;8.03;;
5555;SDS011;2801;50.972;7.856;2022-12-07T09:29:38;14.27;;;7.30;;
5555;SDS011;2801;50.972;7.856;2022-12-07T09:32:05;15.70;;;7.30;;
5555;SDS011;2801;50.972;7.856;2022-12-07T09:34:37;18.50;;;7.80;;
5555;SDS011;2801;50.972;7.856;2022-12-07T09:37:04;12.70;;;7.20;;
5555;SDS011;2801;50.972;7.856;2022-12-07T09:39:31;16.53;;;7.70;;
5555;SDS011;2801;50.972;7.856;2022-12-07T09:41:58;16.10;;;7.30;;
5555;SDS011;2801;50.972;7.856;2022-12-07T09:44:29;17.90;;;7.50;;
5555;SDS011;2801;50.972;7.856;2022-12-07T09:46:57;17.83;;;7.53;;
5555;SDS011;2801;50.972;7.856;2022-12-07T09:49:27;14.87;;;7.47;;
5555;SDS011;2801;50.972;7.856;2022-12-07T09:52:02;18.00;;;7.33;;
5555;SDS011;2801;50.972;7.856;2022-12-07T09:55:00;21.87;;;7.87;;
5555;SDS011;2801;50.972;7.856;2022-12-07T09:57:29;19.60;;;7.90;;
5555;SDS011;2801;50.972;7.856;2022-12-07T10:00:03;17.07;;;6.60;;
5555;SDS011;2801;50.972;7.856;2022-12-07T10:02:40;17.90;;;7.47;;
5555;SDS011;2801;50.972;7.856;2022-12-07T10:05:37;19.17;;;7.03;;
5555;SDS011;2801;50.972;7.856;2022-12-07T10:08:11;16.43;;;6.83;;
5555;SDS011;2801;50.972;7.856;2022-12-07T10:10:40;13.17;;;7.37;;
5555;SDS011;2801;50.972;7.856;2022-12-07T10:13:09;14.87;;;6.53;;
5555;SDS011;2801;50.972;7.856;2022-12-07T10:15:49;13.93;;;6.93;;
5555;SDS011;2801;50.972;7.856;2022-12-07T10:26:34;17.37;;;8.03;;
5555;SDS011;2801;50.972;7.856;2022-12-07T10:32:34;16.03;;;8.47;;
5555;SDS011;2801;50.972;7.856;2022-12-07T10:34:40;18.40;;;8.23;;
5555;SDS011;2801;50.972;7.856;2022-12-07T10:37:16;17.17;;;8.73;;
5555;SDS011;2801;50.972;7.856;2022-12-07T10:39:47;23.57;;;10.10;;
5555;SDS011;2801;50.972;7.856;2022-12-07T10:42:15;16.57;;;8.77;;
5555;SDS011;2801;50.972;7.856;2022-12-07T10:45:07;20.67;;;10.40;;
5555;SDS011;2801;50.972;7.856;2022-12-07T10:47:59;19.10;;;9.23;;
5555;SDS011;2801;50.972;7.856;2022-12-07T10:56:25;22.87;;;9.83;;
5555;SDS011;2801;50.972;7.856;2022-12-07T11:00:07;21.87;;;8.90;;
5555;SDS011;2801;50.972;7.856;2022-12-07T11:02:30;23.40;;;9.97;;
5555;SDS011;2801;50.972;7.856;2022-12-07T11:05:38;27.90;;;10.13;;
5555;SDS011;2801;50.972;7.856;2022-12-07T11:08:37;24.97;;;10.13;;
5555;SDS011;2801;50.972;7.856;2022-12-07T11:11:26;16.93;;;8.47;;
5555;SDS011;2801;50.972;7.856;2022-12-07T11:23:16;18.13;;;8.23;;
5555;SDS011;2801;50.972;7.856;2022-12-07T11:26:11;15.80;;;7.33;;
5555;SDS011;2801;50.972;7.856;2022-12-07T11:37:21;14.50;;;5.70;;
5555;SDS011;2801;50.972;7.856;2022-12-07T11:44:25;10.40;;;5.33;;
5555;SDS011;2801;50.972;7.856;2022-12-07T11:50:07;9.37;;;4.80;;
5555;SDS011;2801;50.972;7.856;2022-12-07T11:55:48;8.93;;;5.00;;
5555;SDS011;2801;50.972;7.856;2022-12-07T11:58:47;11.37;;;5.67;;
5555;SDS011;2801;50.972;7.856;2022-12-07T12:06:42;11.17;;;5.60;;
5555;SDS011;2801;50.972;7.856;2022-12-07T12:09:19;8.00;;;4.83;;
5555;SDS011;2801;50.972;7.856;2022-12-07T12:13:05;8.53;;;4.83;;
5555;SDS011;2801;50.972;7.856;2022-12-07T12:15:58;9.50;;;5.03;;
5555;SDS011;2801;50.972;7.856;2022-12-07T12:18:53;10.87;;;5.07;;
5555;SDS011;2801;50.972;7.856;2022-12-07T12:21:32;17.83;;;7.63;;
5555;SDS011;2801;50.972;7.856;2022-12-07T12:24:03;14.17;;;6.50;;
5555;SDS011;2801;50.972;7.856;2022-12-07T12:26:52;16.57;;;6.23;;
5555;SDS011;2801;50.972;7.856;2022-12-07T12:29:37;13.70;;;6.37;;
5555;SDS011;2801;50.972;7.856;2022-12-07T12:32:15;11.07;;;6.30;;
5555;SDS011;2801;50.972;7.856;2022-12-07T12:45:25;15.23;;;6.90;;
5555;SDS011;2801;50.972;7.856;2022-12-07T12:54:14;13.73;;;6.50;;
5555;SDS011;2801;50.972;7.856;2022-12-07T12:59:34;17.80;;;8.67;;
5555;SDS011;2801;50.972;7.856;2022-12-07T13:04:58;14.40;;;6.33;;
5555;SDS011;2801;50.972;7.856;2022-12-07T13:24:11;14.70;;;8.10;;
5555;SDS011;2801;50.972;7.856;2022-12-07T13:31:43;10.97;;;6.07;;
5555;SDS011;2801;50.972;7.856;2022-12-07T13:39:57;9.30;;;4.80;;
5555;SDS011;2801;50.972;7.856;2022-12-07T13:42:44;9.37;;;5.13;;
5555;SDS011;2801;50.972;7.856;2022-12-07T13:45:20;12.33;;;5.93;;
5555;SDS011;2801;50.972;7.856;2022-12-07T13:51:18;10.73;;;4.63;;
5555;SDS011;2801;50.972;7.856;2022-12-07T13:53:50;8.00;;;4.40;;
5555;SDS011;2801;50.972;7.856;2022-12-07T13:56:32;10.10;;;4.30;;
5555;SDS011;2801;50.972;7.856;2022-12-07T13:59:01;5.83;;;3.40;;
5555;SDS011;2801;50.972;7.856;2022-12-07T14:01:30;5.97;;;3.80;;
5555;SDS011;2801;50.972;7.856;2022-12-07T14:06:58;7.30;;;3.73;;
5555;SDS011;2801;50.972;7.856;2022-12-07T14:09:28;10.80;;;4.20;;
5555;SDS011;2801;50.972;7.856;2022-12-07T14:11:56;14.27;;;6.20;;
5555;SDS011;2801;50.972;7.856;2022-12-07T14:14:28;12.40;;;5.27;;
5555;SDS011;2801;50.972;7.856;2022-12-07T14:17:23;11.87;;;5.37;;
5555;SDS011;2801;50.972;7.856;2022-12-07T14:22:36;10.73;;;6.07;;
5555;SDS011;2801;50.972;7.856;2022-12-07T14:25:21;11.13;;;6.83;;
5555;SDS011;2801;50.972;7.856;2022-12-07T14:30:25;16.17;;;7.43;;
5555;SDS011;2801;50.972;7.856;2022-12-07T14:33:01;16.67;;;6.37;;
5555;SDS011;2801;50.972;7.856;2022-12-07T14:35:30;14.93;;;7.40;;
5555;SDS011;2801;50.972;7.856;2022-12-07T14:37:58;16.37;;;6.00;;
5555;SDS011;2801;50.972;7.856;2022-12-07T14:40:26;15.83;;;6.87;;
5555;SDS011;2801;50.972;7.856;2022-12-07T14:43:16;14.57;;;6.63;;
5555;SDS011;2801;50.972;7.856;2022-12-07T14:45:43;15.53;;;6.93;;
5555;SDS011;2801;50.972;7.856;2022-12-07T14:48:11;11.70;;;6.67;;
5555;SDS011;2801;50.972;7.856;2022-12-07T14:51:00;15.73;;;7.03;;
5555;SDS011;2801;50.972;7.856;2022-12-07T14:53:48;14.47;;;6.47;;
5555;SDS011;2801;50.972;7.856;2022-12-07T14:56:22;17.80;;;6.50;;
5555;SDS011;2801;50.972;7.856;2022-12-07T14:58:53;11.60;;;6.33;;
5555;SDS011;2801;50.972;7.856;2022-12-07T15:01:20;17.03;;;6.57;;
5555;SDS011;2801;50.972;7.856;2022-12-07T15:03:47;12.80;;;5.97;;
5555;SDS011;2801;50.972;7.856;2022-12-07T15:06:15;13.30;;;6.87;;
5555;SDS011;2801;50.972;7.856;2022-12-07T15:08:44;13.77;;;6.50;;
5555;SDS011;2801;50.972;7.856;2022-12-07T15:11:12;13.30;;;6.23;;
5555;SDS011;2801;50.972;7.856;2022-12-07T15:13:41;12.73;;;6.63;;
5555;SDS011;2801;50.972;7.856;2022-12-07T15:16:26;14.27;;;6.50;;
5555;SDS011;2801;50.972;7.856;2022-12-07T15:19:15;13.47;;;6.90;;
5555;SDS011;2801;50.972;7.856;2022-12-07T15:21:55;15.47;;;5.97;;
5555;SDS011;2801;50.972;7.856;2022-12-07T15:24:23;13.87;;;6.60;;
5555;SDS011;2801;50.972;7.856;2022-12-07T15:26:50;18.13;;;7.90;;
5555;SDS011;2801;50.972;7.856;2022-12-07T15:29:17;15.50;;;7.37;;
5555;SDS011;2801;50.972;7.856;2022-12-07T15:31:49;15.33;;;6.43;;
5555;SDS011;2801;50.972;7.856;2022-12-07T15:34:26;16.17;;;7.63;;
5555;SDS011;2801;50.972;7.856;2022-12-07T15:37:03;16.53;;;8.30;;
5555;SDS011;2801;50.972;7.856;2022-12-07T15:39:30;17.03;;;8.13;;
5555;SDS011;2801;50.972;7.856;2022-12-07T15:41:57;19.00;;;8.73;;
5555;SDS011;2801;50.972;7.856;2022-12-07T15:44:24;17.97;;;8.87;;
5555;SDS011;2801;50.972;7.856;2022-12-07T15:47:09;16.97;;;7.03;;
5555;SDS011;2801;50.972;7.856;2022-12-07T15:49:36;17.93;;;7.63;;
5555;SDS011;2801;50.972;7.856;2022-12-07T15:52:03;12.93;;;6.37;;
5555;SDS011;2801;50.972;7.856;2022-12-07T15:54:30;14.83;;;6.83;;
5555;SDS011;2801;50.972;7.856;2022-12-07T15:56:58;16.60;;;6.50;;
5555;SDS011;2801;50.972;7.856;2022-12-07T15:59:25;13.17;;;5.77;;
5555;SDS011;2801;50.972;7.856;2022-12-07T16:01:54;10.80;;;5.57;;
5555;SDS011;2801;50.972;7.856;2022-12-07T16:04:21;14.33;;;6.67;;
5555;SDS011;2801;50.972;7.856;2022-12-07T16:06:49;16.17;;;8.20;;
5555;SDS011;2801;50.972;7.856;2022-12-07T16:09:17;14.97;;;6.60;;
5555;SDS011;2801;50.972;7.856;2022-12-07T16:11:45;13.57;;;6.30;;
5555;SDS011;2801;50.972;7.856;2022-12-07T16:14:12;13.13;;;6.63;;
5555;SDS011;2801;50.972;7.856;2022-12-07T16:16:39;14.50;;;6.40;;
5555;SDS011;2801;50.972;7.856;2022-12-07T16:19:06;12.50;;;6.67;;
5555;SDS011;2801;50.972;7.856;2022-12-07T16:21:35;17.33;;;6.07;;
5555;SDS011;2801;50.972;7.856;2022-12-07T16:24:02;13.97;;;7.13;;
5555;SDS011;2801;50.972;7.856;2022-12-07T16:26:29;18.40;;;6.73;;
5555;SDS011;2801;50.972;7.856;2022-12-07T16:28:57;12.17;;;7.07;;
5555;SDS011;2801;50.972;7.856;2022-12-07T16:31:24;16.57;;;8.17;;
5555;SDS011;2801;50.972;7.856;2022-12-07T16:33:53;15.80;;;7.00;;
5555;SDS011;2801;50.972;7.856;2022-12-07T16:36:23;22.40;;;9.40;;
5555;SDS011;2801;50.972;7.856;2022-12-07T16:39:13;23.63;;;9.97;;
5555;SDS011;2801;50.972;7.856;2022-12-07T16:41:40;19.00;;;10.00;;
5555;SDS011;2801;50.972;7.856;2022-12-07T16:44:09;27.00;;;10.80;;
5555;SDS011;2801;50.972;7.856;2022-12-07T16:46:38;19.67;;;9.27;;
5555;SDS011;2801;50.972;7.856;2022-12-07T16:49:08;25.90;;;9.97;;
5555;SDS011;2801;50.972;7.856;2022-12-07T16:51:40;22.93;;;10.97;;
5555;SDS011;2801;50.972;7.856;2022-12-07T16:54:09;25.07;;;11.53;;
5555;SDS011;2801;50.972;7.856;2022-12-07T16:56:38;25.63;;;10.10;;
5555;SDS011;2801;50.972;7.856;2022-12-07T16:59:05;26.43;;;10.57;;
5555;SDS011;2801;50.972;7.856;2022-12-07T17:01:32;30.80;;;11.63;;
5555;SDS011;2801;50.972;7.856;2022-12-07T17:04:00;24.00;;;9.77;;
5555;SDS011;2801;50.972;7.856;2022-12-07T17:06:28;26.53;;;10.67;;
5555;SDS011;2801;50.972;7.856;2022-12-07T17:08:56;28.77;;;12.33;;
5555;SDS011;2801;50.972;7.856;2022-12-07T17:11:25;26.30;;;11.87;;
5555;SDS011;2801;50.972;7.856;2022-12-07T17:13:59;26.27;;;11.73;;
5555;SDS011;2801;50.972;7.856;2022-12-07T17:16:44;26.33;;;10.83;;
5555;SDS011;2801;50.972;7.856;2022-12-07T17:19:13;28.57;;;11.60;;
5555;SDS011;2801;50.972;7.856;2022-12-07T17:21:42;33.60;;;12.63;;
5555;SDS011;2801;50.972;7.856;2022-12-07T17:24:11;24.67;;;11.93;;
5555;SDS011;2801;50.972;7.856;2022-12-07T17:26:41;29.27;;;12.37;;
5555;SDS011;2801;50.972;7.856;2022-12-07T17:29:11;26.03;;;10.97;;
5555;SDS011;2801;50.972;7.856;2022-12-07T17:31:40;27.10;;;11.00;;
5555;SDS011;2801;50.972;7.856;2022-12-07T17:34:14;28.20;;;11.03;;
5555;SDS011;2801;50.972;7.856;2022-12-07T17:36:42;29.33;;;11.40;;
5555;SDS011;2801;50.972;7.856;2022-12-07T17:39:11;25.70;;;11.00;;
5555;SDS011;2801;50.972;7.856;2022-12-07T17:41:42;24.47;;;10.53;;
5555;SDS011;2801;50.972;7.856;2022-12-07T17:44:28;29.20;;;12.03;;
5555;SDS011;2801;50.972;7.856;2022-12-07T17:46:55;26.30;;;13.00;;
5555;SDS011;2801;50.972;7.856;2022-12-07T17:49:25;32.00;;;12.97;;
5555;SDS011;2801;50.972;7.856;2022-12-07T17:51:53;27.93;;;12.23;;
5555;SDS011;2801;50.972;7.856;2022-12-07T17:54:40;27.80;;;12.20;;
5555;SDS011;2801;50.972;7.856;2022-12-07T17:57:07;33.50;;;13.77;;
5555;SDS011;2801;50.972;7.856;2022-12-07T17:59:34;33.40;;;13.53;;
5555;SDS011;2801;50.972;7.856;2022-12-07T18:02:01;35.03;;;12.77;;
5555;SDS011;2801;50.972;7.856;2022-12-07T18:04:29;35.10;;;13.37;;